Time;durP1;ratioP1;P1;durP2;ratioP2;P2;SDS_P1;SDS_P2;PMS_P1;PMS_P2;Temp;Humidity;BMP_temperature;BMP_pressure;BME280_temperature;BME280_humidity;BME280_pressure;Samples;Min_cycle;Max_cycle;Signal;HPM_P1;HPM_P2
2023/10/20 00:02:14;;;;;;;8.97;8.07;;;;;;;13.96;91.94;94455.16;5133294;28;20450;-75
2023/10/20 00:04:42;;;;;;;8.73;7.87;;;;;;;13.95;91.67;94451.69;5133463;28;20448;-76
2023/10/20 00:07:09;;;;;;;9.47;7.57;;;;;;;13.90;92.18;94463.72;5133266;28;20509;-76
2023/10/20 00:09:36;;;;;;;8.50;7.70;;;;;;;13.63;93.02;94452.41;5097262;28;20926;-76
2023/10/20 00:12:04;;;;;;;8.30;7.50;;;;;;;13.76;92.98;94459.03;5133442;28;20445;-76
2023/10/20 00:14:31;;;;;;;7.53;6.73;;;;;;;13.81;92.82;94441.75;5133155;28;20452;-76
2023/10/20 00:16:58;;;;;;;12.10;8.03;;;;;;;13.83;92.40;94438.94;5133135;28;20455;-76
2023/10/20 00:19:25;;;;;;;8.97;8.07;;;;;;;13.72;92.77;94455.06;5133457;28;20931;-76
2023/10/20 00:21:54;;;;;;;17.70;7.50;;;;;;;13.55;93.29;94418.09;5133324;28;20444;-75
2023/10/20 00:24:22;;;;;;;9.97;8.43;;;;;;;13.49;93.92;94439.00;5133000;28;20444;-76
2023/10/20 00:26:49;;;;;;;8.30;7.50;;;;;;;13.36;94.55;94421.00;5133264;28;20441;-76
2023/10/20 00:29:16;;;;;;;12.70;7.90;;;;;;;13.31;95.41;94431.19;5133058;28;20440;-76
2023/10/20 00:31:43;;;;;;;10.87;8.80;;;;;;;13.37;95.66;94433.19;5133145;28;20440;-76
2023/10/20 00:34:09;;;;;;;10.40;9.40;;;;;;;13.39;95.73;94425.97;5097045;28;20445;-76
2023/10/20 00:36:36;;;;;;;12.07;7.90;;;;;;;13.49;95.76;94429.28;5096790;28;20437;-77
2023/10/20 00:39:06;;;;;;;8.73;7.83;;;;;;;13.52;95.56;94413.13;5133081;28;20826;-77
2023/10/20 00:41:34;;;;;;;7.90;7.20;;;;;;;13.53;95.61;94413.97;5133441;27;20441;-77
2023/10/20 00:44:01;;;;;;;7.97;7.17;;;;;;;13.58;95.12;94414.31;5136670;27;20454;-77
2023/10/20 00:46:28;;;;;;;10.70;8.23;;;;;;;13.62;94.82;94424.41;5136856;27;20908;-77
2023/10/20 00:48:58;;;;;;;7.60;6.90;;;;;;;13.68;94.93;94427.38;5136705;27;20485;-77
2023/10/20 00:51:25;;;;;;;7.10;6.50;;;;;;;13.75;94.46;94409.91;5136600;27;20438;-77
2023/10/20 00:53:52;;;;;;;10.70;7.30;;;;;;;13.59;94.11;94400.16;5136780;27;20537;-77
2023/10/20 00:56:21;;;;;;;7.67;6.80;;;;;;;13.39;95.12;94410.13;5136410;27;20434;-77
2023/10/20 00:58:48;;;;;;;11.53;7.60;;;;;;;13.37;94.55;94412.09;5083673;27;20465;-76
2023/10/20 01:01:15;;;;;;;11.27;8.40;;;;;;;13.33;95.04;94413.41;5136361;27;20474;-77
2023/10/20 01:03:42;;;;;;;10.63;7.80;;;;;;;13.13;95.73;94399.63;5100190;27;20781;-77
2023/10/20 01:06:10;;;;;;;10.50;8.63;;;;;;;13.07;95.91;94415.22;5136429;27;20492;-76
2023/10/20 01:08:37;;;;;;;9.43;8.27;;;;;;;12.75;98.07;94421.13;5136553;27;20487;-76
2023/10/20 01:11:05;;;;;;;9.00;8.10;;;;;;;12.88;97.51;94413.63;5136274;27;20444;-76
2023/10/20 01:13:33;;;;;;;10.20;8.73;;;;;;;12.93;97.35;94409.53;5117059;27;20531;-76
2023/10/20 01:16:00;;;;;;;8.60;7.70;;;;;;;12.99;97.74;94416.00;5099791;27;20976;-76
2023/10/20 01:18:27;;;;;;;10.50;8.87;;;;;;;12.96;97.01;94411.88;5135823;27;20469;-76
2023/10/20 01:20:55;;;;;;;10.17;8.30;;;;;;;12.99;97.35;94430.00;5135853;27;20451;-76
2023/10/20 01:23:22;;;;;;;13.67;9.23;;;;;;;13.00;97.08;94412.38;5135820;27;20449;-76
2023/10/20 01:25:50;;;;;;;14.53;9.80;;;;;;;12.96;95.93;94411.03;5136212;27;20897;-76
2023/10/20 01:28:19;;;;;;;10.30;9.30;;;;;;;12.96;96.82;94403.13;5116182;27;20476;-76
2023/10/20 01:30:45;;;;;;;11.47;9.13;;;;;;;12.96;97.34;94409.22;5135915;27;20910;-76
2023/10/20 01:33:12;;;;;;;12.60;8.87;;;;;;;13.00;96.92;94404.47;5135849;27;20835;-76
2023/10/20 01:35:39;;;;;;;12.00;10.13;;;;;;;13.04;96.84;94405.84;5135676;27;20448;-76
2023/10/20 01:38:06;;;;;;;9.23;8.33;;;;;;;13.06;96.97;94408.31;5135539;27;20460;-76
2023/10/20 01:40:32;;;;;;;10.10;9.10;;;;;;;13.09;96.17;94392.19;5135381;27;20444;-76
2023/10/20 01:43:01;;;;;;;12.13;9.90;;;;;;;12.98;96.38;94375.66;5135641;27;20451;-76
2023/10/20 01:45:28;;;;;;;11.90;8.63;;;;;;;12.97;96.13;94394.25;5135434;27;20447;-76
2023/10/20 01:47:55;;;;;;;15.10;11.10;;;;;;;13.00;96.07;94378.13;5135520;27;20479;-75
2023/10/20 01:50:21;;;;;;;10.43;9.37;;;;;;;13.01;95.92;94379.81;5135173;27;20831;-76
2023/10/20 01:52:48;;;;;;;10.80;9.30;;;;;;;13.02;95.68;94371.75;5135010;27;20500;-76
2023/10/20 01:55:15;;;;;;;11.10;9.30;;;;;;;12.99;95.02;94377.31;5135514;27;20443;-76
2023/10/20 01:57:42;;;;;;;15.37;10.30;;;;;;;12.98;95.48;94372.19;5135624;27;20443;-76
2023/10/20 02:00:13;;;;;;;16.63;10.23;;;;;;;12.97;95.91;94363.47;5135355;27;20452;-77
2023/10/20 02:02:42;;;;;;;10.70;9.63;;;;;;;12.88;95.55;94363.59;5135191;27;20440;-76
2023/10/20 02:05:08;;;;;;;12.83;11.43;;;;;;;12.85;95.30;94367.38;5135313;27;20444;-76
2023/10/20 02:07:35;;;;;;;14.57;10.63;;;;;;;12.83;95.32;94371.97;5134976;27;20475;-76
2023/10/20 02:10:02;;;;;;;11.93;9.97;;;;;;;12.79;95.54;94375.91;5134791;27;20505;-76
2023/10/20 02:12:29;;;;;;;19.90;11.17;;;;;;;12.70;96.71;94389.97;5134912;27;20443;-76
2023/10/20 02:14:55;;;;;;;18.07;11.90;;;;;;;12.73;97.06;94391.50;5134944;27;20447;-76
2023/10/20 02:17:24;;;;;;;17.07;10.77;;;;;;;12.75;96.15;94398.28;5134562;27;20475;-76
2023/10/20 02:19:51;;;;;;;12.20;9.10;;;;;;;12.74;95.77;94380.81;5134927;27;20440;-76
2023/10/20 02:22:18;;;;;;;11.90;10.40;;;;;;;12.68;95.34;94387.50;5135053;27;20492;-77
2023/10/20 02:24:45;;;;;;;12.67;10.30;;;;;;;12.67;95.04;94390.31;5134946;27;20434;-76
2023/10/20 02:27:12;;;;;;;12.03;8.80;;;;;;;12.51;95.57;94384.94;5115439;27;20471;-76
2023/10/20 02:29:39;;;;;;;11.93;8.73;;;;;;;12.44;96.34;94378.66;5134633;27;20522;-76
2023/10/20 02:32:06;;;;;;;10.57;8.07;;;;;;;12.28;97.48;94388.06;5134935;27;20449;-77
2023/10/20 02:34:34;;;;;;;13.60;10.13;;;;;;;12.20;98.22;94388.00;5134355;27;20439;-76
2023/10/20 02:37:02;;;;;;;11.43;9.90;;;;;;;12.21;97.33;94402.81;5134470;27;20440;-76
2023/10/20 02:39:29;;;;;;;12.00;9.70;;;;;;;12.26;98.11;94384.75;5134547;27;20439;-77
2023/10/20 02:41:57;;;;;;;11.57;9.90;;;;;;;12.19;98.61;94383.72;5134581;27;20441;-77
2023/10/20 02:44:27;;;;;;;12.50;8.20;;;;;;;12.26;98.08;94384.75;5097822;27;20926;-77
2023/10/20 02:46:54;;;;;;;10.40;8.97;;;;;;;12.21;98.77;94391.47;5134501;27;20447;-77
2023/10/20 02:49:21;;;;;;;10.83;9.50;;;;;;;12.28;98.65;94393.31;5134184;27;20985;-77
2023/10/20 02:51:49;;;;;;;11.47;9.57;;;;;;;12.35;98.64;94397.00;5134537;27;20471;-77
2023/10/20 02:54:16;;;;;;;9.13;8.23;;;;;;;12.31;100.00;94371.97;5134320;27;20448;-76
2023/10/20 02:56:44;;;;;;;9.60;7.87;;;;;;;12.35;100.00;94388.28;5134210;27;20446;-77
2023/10/20 02:59:12;;;;;;;9.70;8.37;;;;;;;12.28;100.00;94369.66;5134076;27;20453;-77
2023/10/20 03:01:39;;;;;;;11.40;8.13;;;;;;;12.39;100.00;94387.81;5134055;27;20443;-77
2023/10/20 03:04:06;;;;;;;13.57;7.70;;;;;;;12.45;100.00;94375.03;5131404;27;20839;-77
2023/10/20 03:06:33;;;;;;;9.80;8.80;;;;;;;12.51;100.00;94387.56;5095399;28;20451;-77
2023/10/20 03:09:02;;;;;;;12.20;8.13;;;;;;;12.55;100.00;94366.06;5131484;27;20855;-77
2023/10/20 03:11:29;;;;;;;8.80;7.90;;;;;;;12.61;100.00;94375.94;5133855;27;20443;-77
2023/10/20 03:13:55;;;;;;;10.40;7.17;;;;;;;12.63;100.00;94346.84;5133866;27;20431;-76
2023/10/20 03:16:23;;;;;;;10.30;7.40;;;;;;;12.62;100.00;94367.06;5133229;27;20443;-77
2023/10/20 03:18:50;;;;;;;11.43;8.73;;;;;;;12.67;100.00;94361.34;5133761;27;20927;-76
2023/10/20 03:21:18;;;;;;;8.73;7.87;;;;;;;12.71;100.00;94360.03;5133464;27;20447;-76
2023/10/20 03:23:45;;;;;;;10.50;8.10;;;;;;;12.70;100.00;94353.13;5133734;27;20947;-76
2023/10/20 03:26:14;;;;;;;9.90;7.37;;;;;;;12.78;100.00;94355.00;5080323;28;20457;-76
2023/10/20 03:28:41;;;;;;;7.77;6.93;;;;;;;12.83;100.00;94340.38;5133551;28;20487;-76
2023/10/20 03:31:08;;;;;;;9.87;7.80;;;;;;;12.83;100.00;94361.44;5133448;28;20440;-76
2023/10/20 03:33:35;;;;;;;10.27;8.27;;;;;;;12.84;100.00;94368.38;5133678;28;20927;-76
2023/10/20 03:36:03;;;;;;;9.73;7.77;;;;;;;12.89;100.00;94358.19;5133595;28;20444;-76
2023/10/20 03:38:30;;;;;;;11.43;7.43;;;;;;;12.95;100.00;94343.56;5133374;28;20467;-77
2023/10/20 03:41:06;;;;;;;8.97;8.07;;;;;;;12.95;100.00;94354.91;5133471;28;20454;-76
2023/10/20 03:43:35;;;;;;;12.17;8.73;;;;;;;12.96;100.00;94351.28;5096914;28;20976;-76
2023/10/20 03:46:03;;;;;;;10.50;8.57;;;;;;;13.00;100.00;94360.53;5133537;28;20444;-76
2023/10/20 03:48:31;;;;;;;9.43;8.43;;;;;;;12.93;99.07;94353.41;5133463;28;20479;-76
2023/10/20 03:50:58;;;;;;;10.43;7.90;;;;;;;12.92;99.15;94344.69;5133473;28;20460;-76
2023/10/20 03:53:27;;;;;;;11.63;8.23;;;;;;;12.86;99.14;94344.50;5133161;28;20469;-76
2023/10/20 03:56:01;;;;;;;8.23;7.50;;;;;;;12.89;99.66;94344.19;5133273;28;20518;-77
2023/10/20 03:58:29;;;;;;;10.00;7.93;;;;;;;12.86;100.00;94334.78;5133345;28;20451;-75
2023/10/20 04:00:58;;;;;;;8.73;7.20;;;;;;;12.80;100.00;94318.81;5080893;28;20447;-75
2023/10/20 04:03:26;;;;;;;11.10;8.10;;;;;;;12.77;100.00;94337.56;5133729;28;20467;-75
2023/10/20 04:05:52;;;;;;;10.90;8.30;;;;;;;12.79;99.50;94328.53;5079793;28;20465;-75
2023/10/20 04:08:19;;;;;;;8.90;8.00;;;;;;;12.77;99.18;94333.13;5132586;28;20502;-75
2023/10/20 04:10:46;;;;;;;8.63;7.80;;;;;;;12.78;99.75;94336.56;5133011;28;20473;-76
2023/10/20 04:13:13;;;;;;;9.90;8.10;;;;;;;12.59;98.74;94324.44;5096732;28;20447;-75
2023/10/20 04:15:42;;;;;;;10.70;7.50;;;;;;;12.32;100.00;94334.16;5133154;27;20440;-76
2023/10/20 04:18:10;;;;;;;13.17;8.73;;;;;;;12.25;99.50;94332.31;5136343;27;20470;-76
2023/10/20 04:20:39;;;;;;;11.83;9.20;;;;;;;12.01;100.00;94351.34;5136576;27;20435;-75
2023/10/20 04:23:08;;;;;;;13.27;11.00;;;;;;;11.88;100.00;94346.50;5137133;27;20440;-77
2023/10/20 04:25:44;;;;;;;13.37;10.50;;;;;;;11.93;100.00;94356.53;5136576;27;20447;-75
2023/10/20 04:28:14;;;;;;;14.10;9.77;;;;;;;11.81;99.65;94355.09;5137013;27;20547;-76
2023/10/20 04:41:55;;;;;;;17.37;11.47;;;;;;;11.67;98.74;94353.81;5136760;27;20771;-76
2023/10/20 04:53:09;;;;;;;16.13;12.00;;;;;;;11.39;100.00;94347.78;4967418;28;20537;-76
2023/10/20 04:58:34;;;;;;;16.30;11.60;;;;;;;11.44;100.00;94332.41;4992694;28;20450;-76
2023/10/20 05:01:07;;;;;;;30.17;12.47;;;;;;;11.57;100.00;94360.94;4993397;28;20498;-76
2023/10/20 05:03:45;;;;;;;16.20;11.80;;;;;;;11.60;100.00;94355.41;4993447;28;20558;-76
2023/10/20 05:06:22;;;;;;;16.43;12.30;;;;;;;11.61;100.00;94342.09;4963957;28;20471;-77
2023/10/20 05:08:49;;;;;;;15.00;10.93;;;;;;;11.72;100.00;94365.53;4963233;28;20584;-76
2023/10/20 05:11:17;;;;;;;12.20;9.87;;;;;;;11.69;100.00;94328.19;4993206;28;20445;-76
2023/10/20 05:13:44;;;;;;;12.57;9.77;;;;;;;12.14;100.00;94357.03;4993187;28;20439;-76
2023/10/20 05:16:10;;;;;;;12.50;9.33;;;;;;;12.53;100.00;94361.94;4993015;28;20512;-76
2023/10/20 05:18:38;;;;;;;11.97;10.67;;;;;;;12.68;100.00;94358.56;5042961;28;20493;-76
2023/10/20 05:21:06;;;;;;;16.90;11.10;;;;;;;13.02;99.81;94384.09;5022683;28;20450;-76
2023/10/20 05:23:36;;;;;;;21.30;10.53;;;;;;;13.16;96.48;94365.06;5038736;28;20478;-76
2023/10/20 05:26:03;;;;;;;10.73;9.10;;;;;;;13.66;95.99;94380.06;5006515;28;20445;-76
2023/10/20 05:28:30;;;;;;;16.03;11.30;;;;;;;13.62;93.00;94365.56;5075413;27;20530;-76
2023/10/20 05:30:58;;;;;;;21.97;10.10;;;;;;;14.08;93.30;94392.34;5099563;27;20441;-76
2023/10/20 05:33:26;;;;;;;13.37;10.87;;;;;;;14.64;91.39;94398.63;5135663;27;20935;-76
2023/10/20 05:35:53;;;;;;;15.67;10.27;;;;;;;14.69;87.46;94398.97;5135280;27;20920;-76
2023/10/20 05:38:20;;;;;;;13.10;10.90;;;;;;;15.00;87.42;94422.84;5135645;27;20445;-76
2023/10/20 05:40:57;;;;;;;30.13;10.47;;;;;;;15.13;86.02;94420.53;5135383;27;20447;-76
2023/10/20 05:43:25;;;;;;;25.07;11.07;;;;;;;15.53;85.00;94418.72;5135826;27;20476;-76
2023/10/20 05:45:52;;;;;;;17.50;11.10;;;;;;;15.67;83.73;94421.50;5135346;27;20876;-76
2023/10/20 05:48:19;;;;;;;18.13;10.00;;;;;;;16.08;83.01;94430.03;5134905;27;20786;-76
2023/10/20 05:50:46;;;;;;;16.57;10.83;;;;;;;16.33;81.13;94421.94;5135270;27;20446;-76
2023/10/20 05:53:14;;;;;;;16.23;10.60;;;;;;;16.68;80.38;94421.38;5135393;27;20442;-76
2023/10/20 05:55:41;;;;;;;12.27;9.77;;;;;;;16.81;79.84;94419.94;5135252;27;20449;-76
2023/10/20 05:58:09;;;;;;;16.73;9.87;;;;;;;17.25;78.64;94422.66;5135160;27;20448;-76
2023/10/20 06:00:37;;;;;;;23.60;11.43;;;;;;;17.53;76.38;94420.19;5135195;27;20448;-76
2023/10/20 06:03:05;;;;;;;17.50;10.77;;;;;;;17.60;78.60;94405.16;5134841;27;20431;-77
2023/10/20 06:05:34;;;;;;;10.33;9.33;;;;;;;17.87;76.54;94416.97;5134194;27;20539;-77
2023/10/20 06:08:02;;;;;;;11.80;8.40;;;;;;;17.91;73.31;94387.19;5134289;27;20444;-77
2023/10/20 06:10:29;;;;;;;12.03;10.03;;;;;;;17.94;75.24;94424.00;5134500;27;20479;-77
2023/10/20 06:12:57;;;;;;;11.27;9.20;;;;;;;18.09;74.30;94409.88;5134933;27;20452;-77
2023/10/20 06:15:25;;;;;;;11.20;9.20;;;;;;;18.33;77.44;94414.81;5082611;27;20450;-78
2023/10/20 06:17:52;;;;;;;17.97;10.17;;;;;;;18.58;79.72;94410.78;5134750;27;21001;-79
2023/10/20 06:20:19;;;;;;;16.77;10.23;;;;;;;18.71;75.47;94419.91;5135176;27;20461;-76
2023/10/20 06:22:46;;;;;;;17.27;11.17;;;;;;;18.88;76.57;94423.94;5134783;27;20433;-80
2023/10/20 06:25:13;;;;;;;17.47;10.90;;;;;;;19.04;73.29;94407.69;5134913;27;20445;-77
2023/10/20 06:27:42;;;;;;;16.10;10.00;;;;;;;19.19;77.80;94435.03;5134752;27;20451;-76
2023/10/20 06:30:19;;;;;;;11.37;8.17;;;;;;;19.18;71.31;94409.44;5134425;27;20489;-76
2023/10/20 06:32:56;;;;;;;10.47;7.83;;;;;;;19.30;73.53;94424.84;5089314;28;20453;-76
2023/10/20 06:35:32;;;;;;;8.10;6.50;;;;;;;19.24;72.23;94417.66;5132830;27;21015;-76
2023/10/20 06:38:11;;;;;;;10.10;7.13;;;;;;;19.31;75.44;94410.53;5134326;27;20448;-76
2023/10/20 06:40:39;;;;;;;14.00;7.40;;;;;;;19.46;75.90;94406.75;5133604;27;20438;-75
2023/10/20 06:43:06;;;;;;;11.67;9.10;;;;;;;19.52;73.19;94407.00;5134123;27;20438;-76
2023/10/20 06:45:37;;;;;;;14.10;9.53;;;;;;;19.64;71.17;94390.28;5134174;27;20446;-76
2023/10/20 06:48:09;;;;;;;16.30;9.23;;;;;;;19.43;74.87;94415.13;5134208;27;20534;-76
2023/10/20 06:50:37;;;;;;;7.10;6.27;;;;;;;19.39;71.11;94389.13;5125645;27;20493;-76
2023/10/20 06:53:04;;;;;;;12.10;6.87;;;;;;;19.48;73.19;94411.88;5080807;28;20447;-77
2023/10/20 06:55:31;;;;;;;9.87;7.13;;;;;;;19.49;71.58;94408.19;5113555;28;20448;-77
2023/10/20 06:57:58;;;;;;;7.93;6.00;;;;;;;19.59;73.32;94410.53;5129236;27;20470;-76
2023/10/20 07:00:26;;;;;;;12.03;7.10;;;;;;;19.56;71.16;94414.41;5127045;27;20438;-77
2023/10/20 07:02:52;;;;;;;12.83;7.80;;;;;;;19.40;71.36;94402.22;5131893;27;21260;-76
2023/10/20 07:05:23;;;;;;;12.73;9.80;;;;;;;19.21;72.33;94428.69;5119987;27;20496;-76
2023/10/20 07:07:50;;;;;;;9.70;7.73;;;;;;;18.92;72.01;94405.78;5126948;27;20911;-76
2023/10/20 07:10:18;;;;;;;13.43;8.70;;;;;;;18.99;72.87;94419.94;5133686;27;20537;-76
2023/10/20 07:12:44;;;;;;;9.73;7.83;;;;;;;18.87;71.98;94414.34;5094174;28;20426;-76
2023/10/20 07:15:12;;;;;;;13.30;8.50;;;;;;;18.78;71.77;94426.09;5113310;28;20922;-77
2023/10/20 07:17:38;;;;;;;11.20;8.80;;;;;;;18.57;74.07;94419.78;5113676;28;20884;-77
2023/10/20 07:20:07;;;;;;;20.67;10.47;;;;;;;18.41;74.79;94414.69;5113180;28;20441;-77
2023/10/20 07:22:35;;;;;;;9.87;8.77;;;;;;;18.11;76.72;94408.66;5094279;28;20460;-77
2023/10/20 07:25:03;;;;;;;17.67;10.13;;;;;;;18.11;77.24;94407.84;5113310;28;20786;-77
2023/10/20 07:27:29;;;;;;;15.70;10.10;;;;;;;17.90;79.16;94412.09;5114526;27;20527;-77
2023/10/20 07:29:57;;;;;;;14.17;9.57;;;;;;;17.76;79.08;94412.97;5133664;27;20488;-76
2023/10/20 07:32:23;;;;;;;18.43;11.50;;;;;;;17.76;80.30;94412.97;5134107;28;20444;-76
2023/10/20 07:34:51;;;;;;;22.70;13.77;;;;;;;17.70;80.32;94402.28;5133977;28;20456;-76
2023/10/20 07:37:18;;;;;;;14.40;12.57;;;;;;;17.88;81.98;94427.38;5133489;28;20795;-77
2023/10/20 07:39:46;;;;;;;15.03;11.97;;;;;;;17.79;79.97;94407.28;5133745;28;20444;-77
2023/10/20 07:42:16;;;;;;;15.93;12.20;;;;;;;17.87;79.02;94423.09;5133477;28;21278;-77
2023/10/20 07:44:43;;;;;;;22.27;14.20;;;;;;;17.55;79.62;94415.50;5133613;28;20438;-77
2023/10/20 07:47:10;;;;;;;14.07;12.00;;;;;;;17.70;79.65;94436.78;5133834;28;20800;-77
2023/10/20 07:49:37;;;;;;;16.20;13.10;;;;;;;17.54;79.92;94416.53;5133576;28;20488;-77
2023/10/20 07:52:04;;;;;;;17.70;15.03;;;;;;;17.66;81.72;94417.72;5136794;27;20988;-77
2023/10/20 07:54:31;;;;;;;13.90;11.90;;;;;;;17.58;80.40;94401.88;5137783;27;20443;-77
2023/10/20 07:56:59;;;;;;;12.10;10.17;;;;;;;17.70;81.08;94403.09;5137860;27;20768;-77
2023/10/20 07:59:26;;;;;;;16.73;11.90;;;;;;;17.30;79.56;94404.34;5137315;27;20859;-76
2023/10/20 08:01:53;;;;;;;18.13;11.67;;;;;;;17.49;80.06;94400.34;5137864;27;20551;-75
2023/10/20 08:04:20;;;;;;;25.73;13.97;;;;;;;17.39;78.84;94386.53;5137495;27;20443;-76
2023/10/20 08:06:47;;;;;;;11.43;10.20;;;;;;;17.59;80.92;94420.25;5137469;27;21161;-76
2023/10/20 08:09:14;;;;;;;15.10;11.13;;;;;;;17.62;78.23;94408.44;5137091;27;20532;-76
2023/10/20 08:11:42;;;;;;;14.50;10.33;;;;;;;17.46;78.23;94400.72;5100959;27;20987;-76
2023/10/20 08:14:10;;;;;;;8.37;7.50;;;;;;;17.68;78.28;94405.13;5136929;27;20541;-76
2023/10/20 08:16:37;;;;;;;9.97;8.73;;;;;;;18.05;82.08;94403.28;5137116;27;20486;-76
2023/10/20 08:19:04;;;;;;;13.93;8.80;;;;;;;18.21;75.02;94389.75;5137112;27;20982;-76
2023/10/20 08:21:30;;;;;;;9.97;7.90;;;;;;;18.42;77.29;94392.44;5137325;27;20451;-76
2023/10/20 08:23:59;;;;;;;11.37;7.50;;;;;;;18.67;76.86;94397.38;5137293;27;20450;-76
2023/10/20 08:26:26;;;;;;;8.50;7.70;;;;;;;18.86;74.46;94413.50;5137256;27;20443;-76
2023/10/20 08:28:52;;;;;;;12.30;7.50;;;;;;;19.05;73.07;94395.22;5136883;27;20448;-76
2023/10/20 08:31:21;;;;;;;15.03;6.70;;;;;;;19.16;72.89;94414.16;5136713;27;20542;-76
2023/10/20 08:33:51;;;;;;;8.20;7.10;;;;;;;19.40;70.44;94404.06;5136704;27;20440;-77
2023/10/20 08:36:21;;;;;;;14.03;7.73;;;;;;;19.54;71.43;94412.97;5136551;27;20495;-76
2023/10/20 08:38:49;;;;;;;8.57;7.77;;;;;;;19.55;69.80;94391.47;5136595;27;20458;-76
2023/10/20 08:41:18;;;;;;;9.80;7.67;;;;;;;19.54;70.72;94410.31;5136731;27;20456;-76
2023/10/20 08:43:46;;;;;;;9.63;6.70;;;;;;;19.49;69.83;94402.88;5136811;27;20448;-77
2023/10/20 08:46:17;;;;;;;9.00;6.63;;;;;;;19.54;70.52;94383.69;5136714;27;20444;-76
2023/10/20 08:48:46;;;;;;;11.63;7.83;;;;;;;19.68;72.47;94401.38;5136796;27;20524;-77
2023/10/20 08:51:14;;;;;;;8.57;6.93;;;;;;;19.63;68.76;94378.00;5136297;27;20818;-76
2023/10/20 08:53:42;;;;;;;12.53;8.00;;;;;;;19.49;71.69;94392.25;5136732;27;20853;-76
2023/10/20 08:56:10;;;;;;;8.70;7.30;;;;;;;19.71;69.92;94391.16;5136439;27;20585;-76
2023/10/20 08:58:37;;;;;;;11.40;7.90;;;;;;;19.90;69.43;94388.75;5136304;27;20442;-76
2023/10/20 09:01:05;;;;;;;6.67;6.13;;;;;;;19.78;68.25;94392.00;5136442;27;20443;-76
2023/10/20 09:03:39;;;;;;;13.20;6.70;;;;;;;19.97;68.62;94393.09;5135501;27;20464;-76
2023/10/20 09:06:10;;;;;;;12.50;7.03;;;;;;;20.13;68.29;94378.59;5083060;27;20438;-76
2023/10/20 09:08:37;;;;;;;9.60;8.47;;;;;;;20.22;66.99;94385.38;5136337;27;20440;-76
2023/10/20 09:11:07;;;;;;;8.20;7.20;;;;;;;20.30;68.85;94371.88;5136081;27;20478;-76
2023/10/20 09:13:36;;;;;;;15.30;7.03;;;;;;;20.51;68.56;94394.06;5136251;27;20480;-76
2023/10/20 09:16:07;;;;;;;10.10;7.20;;;;;;;20.69;68.12;94378.31;5136061;27;20432;-76
2023/10/20 09:18:41;;;;;;;17.10;8.50;;;;;;;20.80;67.50;94379.53;5100662;27;20520;-76
2023/10/20 09:21:09;;;;;;;21.50;9.17;;;;;;;20.93;67.06;94374.19;5136028;27;20442;-76
2023/10/20 09:23:36;;;;;;;13.90;8.40;;;;;;;20.97;64.42;94365.56;5135778;27;20440;-76
2023/10/20 09:26:04;;;;;;;13.70;8.07;;;;;;;21.01;65.55;94371.31;5135921;27;20959;-76
2023/10/20 09:28:31;;;;;;;9.33;7.20;;;;;;;21.05;65.12;94361.88;5135669;27;20760;-76
2023/10/20 09:30:59;;;;;;;10.47;6.47;;;;;;;21.05;64.95;94361.88;5099505;27;20481;-76
2023/10/20 09:33:26;;;;;;;8.67;5.63;;;;;;;20.73;64.75;94361.69;5099376;27;20523;-76
2023/10/20 09:35:53;;;;;;;9.23;6.60;;;;;;;20.63;63.97;94355.94;5135721;27;20449;-76
2023/10/20 09:38:26;;;;;;;8.43;6.40;;;;;;;20.79;66.23;94343.22;5135569;27;20481;-75
2023/10/20 09:41:03;;;;;;;10.10;6.73;;;;;;;20.98;66.19;94343.22;5136945;27;20529;-77
2023/10/20 09:43:35;;;;;;;6.43;5.70;;;;;;;20.98;63.84;94327.19;5135596;27;20444;-77
2023/10/20 09:46:13;;;;;;;7.87;5.73;;;;;;;21.19;64.97;94326.16;5135979;27;20502;-77
2023/10/20 09:48:41;;;;;;;10.30;5.87;;;;;;;21.42;64.27;94323.03;5135448;27;20438;-75
2023/10/20 09:51:08;;;;;;;14.53;6.60;;;;;;;21.40;65.22;94322.44;5135461;27;20512;-76
2023/10/20 09:53:38;;;;;;;9.68;6.20;;;;;;;21.52;64.28;94322.59;5135087;27;20785;-76
2023/10/20 09:56:05;;;;;;;12.30;6.27;;;;;;;21.25;63.26;94308.50;5135258;27;20851;-76
2023/10/20 09:58:34;;;;;;;9.30;5.90;;;;;;;21.21;62.46;94321.41;5135340;27;20433;-77
2023/10/20 10:01:02;;;;;;;14.97;6.10;;;;;;;21.13;62.63;94321.66;5135400;27;20455;-76
2023/10/20 10:03:34;;;;;;;7.77;5.63;;;;;;;21.12;63.01;94316.53;5135319;27;20773;-76
2023/10/20 10:06:02;;;;;;;12.30;5.60;;;;;;;21.21;62.26;94315.25;5134740;27;20448;-77
2023/10/20 10:08:29;;;;;;;10.17;5.77;;;;;;;21.27;63.87;94315.28;5134889;27;20480;-76
2023/10/20 10:10:57;;;;;;;8.57;6.10;;;;;;;21.38;64.03;94316.47;5135151;27;20491;-77
2023/10/20 10:13:35;;;;;;;11.27;6.47;;;;;;;21.52;64.80;94306.56;5135066;27;20532;-76
2023/10/20 10:16:13;;;;;;;13.70;6.20;;;;;;;21.52;62.96;94296.72;5134862;27;20453;-77
2023/10/20 10:18:46;;;;;;;10.73;5.97;;;;;;;21.56;66.04;94292.59;5134623;27;20471;-76
2023/10/20 10:21:24;;;;;;;11.30;5.87;;;;;;;21.53;63.89;94284.19;5134562;27;20447;-76
2023/10/20 10:24:17;;;;;;;15.60;6.30;;;;;;;21.54;64.60;94291.97;5134595;27;20970;-77
2023/10/20 10:26:51;;;;;;;7.77;5.27;;;;;;;21.52;63.11;94272.69;5134767;27;20437;-75
2023/10/20 10:29:18;;;;;;;8.53;5.93;;;;;;;21.54;62.79;94275.97;5134618;27;20473;-77
2023/10/20 10:31:47;;;;;;;9.97;6.53;;;;;;;21.69;63.26;94269.53;5134786;27;20492;-77
2023/10/20 10:34:14;;;;;;;11.63;6.10;;;;;;;21.86;62.55;94273.31;5134711;27;20452;-76
2023/10/20 10:36:48;;;;;;;6.57;5.00;;;;;;;21.91;60.58;94268.16;5098303;27;20450;-76
2023/10/20 10:39:23;;;;;;;12.80;5.73;;;;;;;22.04;61.31;94269.97;5134340;27;20439;-76
2023/10/20 10:41:53;;;;;;;7.40;5.50;;;;;;;22.04;59.85;94268.13;5134361;27;20933;-76
2023/10/20 10:44:21;;;;;;;10.83;5.60;;;;;;;22.08;59.32;94265.84;5134489;27;20442;-76
2023/10/20 10:46:49;;;;;;;7.50;5.13;;;;;;;22.06;59.02;94259.88;5134302;27;20477;-76
2023/10/20 10:49:16;;;;;;;10.97;6.30;;;;;;;22.10;58.48;94259.22;5134063;27;20441;-76
2023/10/20 10:51:46;;;;;;;11.90;6.10;;;;;;;22.14;59.37;94236.38;5134023;27;20491;-76
2023/10/20 10:54:13;;;;;;;17.07;6.23;;;;;;;22.20;58.50;94232.00;5133963;27;20442;-76
2023/10/20 10:56:41;;;;;;;10.23;5.63;;;;;;;22.27;59.29;94232.81;5133808;27;20482;-76
2023/10/20 10:59:11;;;;;;;9.17;6.40;;;;;;;22.30;58.85;94236.91;5081272;27;20431;-76
2023/10/20 11:01:39;;;;;;;9.03;6.03;;;;;;;22.43;58.30;94248.28;5134049;27;20462;-76
2023/10/20 11:04:09;;;;;;;12.20;5.60;;;;;;;22.47;56.85;94230.78;5133823;27;20526;-76
2023/10/20 11:06:37;;;;;;;7.90;4.73;;;;;;;22.50;56.01;94237.53;5133804;27;20475;-75
2023/10/20 11:09:08;;;;;;;20.47;6.37;;;;;;;22.54;57.02;94239.53;5097747;27;20440;-76
2023/10/20 11:11:39;;;;;;;17.73;5.60;;;;;;;22.49;57.75;94230.53;5133768;27;20487;-76
2023/10/20 11:14:07;;;;;;;14.60;6.27;;;;;;;22.42;57.33;94245.84;5133833;27;20444;-76
2023/10/20 11:16:37;;;;;;;9.03;5.47;;;;;;;22.39;56.68;94230.22;5133963;27;20798;-76
2023/10/20 11:19:04;;;;;;;9.17;5.00;;;;;;;22.43;57.40;94234.91;5097266;27;20502;-76
2023/10/20 11:21:44;;;;;;;10.83;4.90;;;;;;;22.53;57.84;94226.38;5133624;27;20452;-76
2023/10/20 11:24:11;;;;;;;13.43;6.57;;;;;;;22.63;56.62;94210.69;5133346;27;20486;-76
2023/10/20 11:26:38;;;;;;;8.23;5.40;;;;;;;22.81;56.10;94202.69;5131145;27;20468;-77
2023/10/20 11:29:08;;;;;;;13.80;5.30;;;;;;;22.94;55.65;94207.09;5132888;27;20428;-77
2023/10/20 11:31:37;;;;;;;15.23;5.10;;;;;;;23.07;55.02;94222.19;5132935;27;20917;-74
2023/10/20 11:34:04;;;;;;;18.33;5.83;;;;;;;23.19;54.17;94193.63;5132952;28;20441;-76
2023/10/20 11:36:30;;;;;;;11.63;5.00;;;;;;;23.32;54.82;94198.00;5132773;28;20502;-76
2023/10/20 11:38:58;;;;;;;10.43;5.33;;;;;;;23.44;53.34;94197.03;5133003;28;20448;-76
2023/10/20 11:41:25;;;;;;;12.33;5.30;;;;;;;23.57;52.92;94184.53;5096980;28;20219;-77
2023/10/20 11:43:52;;;;;;;8.40;6.00;;;;;;;23.64;53.07;94186.06;5132854;28;20815;-77
2023/10/20 11:46:19;;;;;;;15.10;6.00;;;;;;;23.72;52.57;94193.78;5132697;28;20452;-76
2023/10/20 11:48:47;;;;;;;18.27;5.87;;;;;;;23.84;49.50;94201.03;5132804;28;20449;-76
2023/10/20 11:51:14;;;;;;;10.73;5.53;;;;;;;23.87;50.03;94169.25;5132836;28;20538;-75
2023/10/20 11:53:41;;;;;;;11.77;5.47;;;;;;;23.97;50.19;94198.97;5133227;28;20441;-77